sensor_id;sensor_type;location;lat;lon;timestamp;pressure;altitude;pressure_sealevel;temperature;humidity
26436;BME280;15351;52.408;16.826;2023-02-16T00:01:33;101693.79;;;3.42;71.66
26436;BME280;15351;52.408;16.826;2023-02-16T00:04:12;101699.08;;;3.40;71.59
26436;BME280;15351;52.408;16.826;2023-02-16T00:06:42;101693.02;;;3.40;71.81
26436;BME280;15351;52.408;16.826;2023-02-16T00:09:09;101701.65;;;3.44;71.65
26436;BME280;15351;52.408;16.826;2023-02-16T00:11:36;101703.75;;;3.45;71.57
26436;BME280;15351;52.408;16.826;2023-02-16T00:14:24;101698.50;;;3.40;71.48
26436;BME280;15351;52.408;16.826;2023-02-16T00:16:56;101699.11;;;3.37;71.54
26436;BME280;15351;52.408;16.826;2023-02-16T00:19:29;101697.11;;;3.37;71.72
26436;BME280;15351;52.408;16.826;2023-02-16T00:22:00;101694.68;;;3.42;71.72
26436;BME280;15351;52.408;16.826;2023-02-16T00:24:29;101695.61;;;3.44;71.41
26436;BME280;15351;52.408;16.826;2023-02-16T00:27:00;101691.22;;;3.43;71.38
26436;BME280;15351;52.408;16.826;2023-02-16T00:29:35;101691.52;;;3.41;71.34
26436;BME280;15351;52.408;16.826;2023-02-16T00:32:28;101690.64;;;3.38;71.48
26436;BME280;15351;52.408;16.826;2023-02-16T00:34:58;101686.27;;;3.40;71.70
26436;BME280;15351;52.408;16.826;2023-02-16T00:37:26;101680.61;;;3.45;71.74
26436;BME280;15351;52.408;16.826;2023-02-16T00:39:53;101673.42;;;3.46;71.60
26436;BME280;15351;52.408;16.826;2023-02-16T00:42:28;101675.70;;;3.47;71.51
26436;BME280;15351;52.408;16.826;2023-02-16T00:44:59;101672.16;;;3.47;71.58
26436;BME280;15351;52.408;16.826;2023-02-16T00:47:36;101675.37;;;3.49;71.65
26436;BME280;15351;52.408;16.826;2023-02-16T00:50:18;101671.86;;;3.51;71.30
26436;BME280;15351;52.408;16.826;2023-02-16T00:52:46;101676.46;;;3.49;71.20
26436;BME280;15351;52.408;16.826;2023-02-16T00:55:19;101676.73;;;3.45;71.34
26436;BME280;15351;52.408;16.826;2023-02-16T00:58:13;101672.09;;;3.45;71.41
26436;BME280;15351;52.408;16.826;2023-02-16T01:00:50;101672.33;;;3.44;71.27
26436;BME280;15351;52.408;16.826;2023-02-16T01:03:24;101669.06;;;3.42;71.26
26436;BME280;15351;52.408;16.826;2023-02-16T01:05:53;101669.23;;;3.42;71.33
26436;BME280;15351;52.408;16.826;2023-02-16T01:08:44;101663.34;;;3.37;71.37
26436;BME280;15351;52.408;16.826;2023-02-16T01:11:40;101655.36;;;3.37;71.51
26436;BME280;15351;52.408;16.826;2023-02-16T01:14:11;101654.45;;;3.40;71.53
26436;BME280;15351;52.408;16.826;2023-02-16T01:16:41;101653.09;;;3.40;71.23
26436;BME280;15351;52.408;16.826;2023-02-16T01:19:11;101651.84;;;3.34;71.39
26436;BME280;15351;52.408;16.826;2023-02-16T01:22:21;101651.44;;;3.35;71.51
26436;BME280;15351;52.408;16.826;2023-02-16T01:25:00;101648.09;;;3.35;71.51
26436;BME280;15351;52.408;16.826;2023-02-16T01:27:29;101639.32;;;3.35;71.46
26436;BME280;15351;52.408;16.826;2023-02-16T01:29:58;101638.94;;;3.36;71.26
26436;BME280;15351;52.408;16.826;2023-02-16T01:32:37;101639.79;;;3.31;71.31
26436;BME280;15351;52.408;16.826;2023-02-16T01:35:10;101633.21;;;3.31;71.33
26436;BME280;15351;52.408;16.826;2023-02-16T01:37:57;101628.41;;;3.34;71.44
26436;BME280;15351;52.408;16.826;2023-02-16T01:43:18;101625.52;;;3.39;71.06
26436;BME280;15351;52.408;16.826;2023-02-16T01:45:52;101623.21;;;3.37;70.94
26436;BME280;15351;52.408;16.826;2023-02-16T01:48:40;101626.16;;;3.36;71.02
26436;BME280;15351;52.408;16.826;2023-02-16T01:56:49;101616.83;;;3.30;70.68
26436;BME280;15351;52.408;16.826;2023-02-16T02:02:08;101613.84;;;3.19;71.06
26436;BME280;15351;52.408;16.826;2023-02-16T02:04:54;101604.48;;;3.23;71.17
26436;BME280;15351;52.408;16.826;2023-02-16T02:08:26;101608.52;;;3.21;71.03
26436;BME280;15351;52.408;16.826;2023-02-16T02:11:09;101604.11;;;3.18;71.09
26436;BME280;15351;52.408;16.826;2023-02-16T02:14:19;101599.34;;;3.15;71.22
26436;BME280;15351;52.408;16.826;2023-02-16T02:17:00;101597.06;;;3.14;71.45
26436;BME280;15351;52.408;16.826;2023-02-16T02:19:31;101597.23;;;3.14;71.29
26436;BME280;15351;52.408;16.826;2023-02-16T02:32:07;101602.41;;;3.04;71.57
26436;BME280;15351;52.408;16.826;2023-02-16T02:35:01;101596.27;;;3.05;71.48
26436;BME280;15351;52.408;16.826;2023-02-16T02:43:37;101591.83;;;3.08;71.83
26436;BME280;15351;52.408;16.826;2023-02-16T02:48:46;101596.75;;;3.14;71.50
26436;BME280;15351;52.408;16.826;2023-02-16T02:51:16;101591.27;;;3.16;71.64
26436;BME280;15351;52.408;16.826;2023-02-16T03:00:39;101589.46;;;3.19;71.38
26436;BME280;15351;52.408;16.826;2023-02-16T03:03:37;101585.67;;;3.20;71.27
26436;BME280;15351;52.408;16.826;2023-02-16T03:06:17;101582.41;;;3.23;71.36
26436;BME280;15351;52.408;16.826;2023-02-16T03:08:52;101580.09;;;3.26;71.30
26436;BME280;15351;52.408;16.826;2023-02-16T03:11:26;101589.61;;;3.22;71.11
26436;BME280;15351;52.408;16.826;2023-02-16T03:14:17;101588.57;;;3.17;71.03
26436;BME280;15351;52.408;16.826;2023-02-16T03:17:15;101588.75;;;3.14;70.98
26436;BME280;15351;52.408;16.826;2023-02-16T03:20:07;101591.81;;;3.10;71.06
26436;BME280;15351;52.408;16.826;2023-02-16T03:22:58;101586.39;;;3.12;71.25
26436;BME280;15351;52.408;16.826;2023-02-16T03:25:47;101590.14;;;3.14;71.07
26436;BME280;15351;52.408;16.826;2023-02-16T03:28:53;101595.70;;;3.14;70.87
26436;BME280;15351;52.408;16.826;2023-02-16T03:31:43;101595.19;;;3.05;70.87
26436;BME280;15351;52.408;16.826;2023-02-16T03:34:22;101599.73;;;2.99;70.99
26436;BME280;15351;52.408;16.826;2023-02-16T03:36:54;101604.55;;;2.95;71.18
26436;BME280;15351;52.408;16.826;2023-02-16T03:39:28;101601.67;;;2.93;71.15
26436;BME280;15351;52.408;16.826;2023-02-16T03:41:59;101597.00;;;2.92;71.14
26436;BME280;15351;52.408;16.826;2023-02-16T03:44:29;101601.51;;;2.90;71.23
26436;BME280;15351;52.408;16.826;2023-02-16T03:47:02;101593.28;;;2.89;71.48
26436;BME280;15351;52.408;16.826;2023-02-16T03:49:30;101591.19;;;2.96;71.44
26436;BME280;15351;52.408;16.826;2023-02-16T03:52:00;101593.36;;;3.01;71.26
26436;BME280;15351;52.408;16.826;2023-02-16T03:54:32;101593.29;;;3.02;70.93
26436;BME280;15351;52.408;16.826;2023-02-16T03:57:00;101590.48;;;2.96;70.81
26436;BME280;15351;52.408;16.826;2023-02-16T03:59:29;101588.36;;;2.88;70.99
26436;BME280;15351;52.408;16.826;2023-02-16T04:01:58;101590.17;;;2.88;71.33
26436;BME280;15351;52.408;16.826;2023-02-16T04:04:26;101593.23;;;2.89;71.14
26436;BME280;15351;52.408;16.826;2023-02-16T04:06:54;101589.61;;;2.88;71.09
26436;BME280;15351;52.408;16.826;2023-02-16T04:09:21;101595.11;;;2.86;71.07
26436;BME280;15351;52.408;16.826;2023-02-16T04:12:11;101588.11;;;2.85;70.97
26436;BME280;15351;52.408;16.826;2023-02-16T04:15:21;101582.02;;;2.83;71.05
26436;BME280;15351;52.408;16.826;2023-02-16T04:17:51;101579.69;;;2.83;71.21
26436;BME280;15351;52.408;16.826;2023-02-16T04:20:39;101577.42;;;2.87;70.97
26436;BME280;15351;52.408;16.826;2023-02-16T04:23:22;101578.32;;;2.85;70.88
26436;BME280;15351;52.408;16.826;2023-02-16T04:25:50;101576.33;;;2.80;70.78
26436;BME280;15351;52.408;16.826;2023-02-16T04:28:18;101572.78;;;2.77;71.08
26436;BME280;15351;52.408;16.826;2023-02-16T04:30:48;101569.29;;;2.76;71.06
26436;BME280;15351;52.408;16.826;2023-02-16T04:33:15;101572.81;;;2.74;71.02
26436;BME280;15351;52.408;16.826;2023-02-16T04:35:43;101568.44;;;2.76;70.95
26436;BME280;15351;52.408;16.826;2023-02-16T04:38:10;101565.23;;;2.76;70.97
26436;BME280;15351;52.408;16.826;2023-02-16T04:40:41;101566.93;;;2.72;70.90
26436;BME280;15351;52.408;16.826;2023-02-16T04:43:10;101561.68;;;2.68;71.00
26436;BME280;15351;52.408;16.826;2023-02-16T04:45:39;101564.77;;;2.67;70.97
26436;BME280;15351;52.408;16.826;2023-02-16T04:48:18;101571.66;;;2.70;70.93
26436;BME280;15351;52.408;16.826;2023-02-16T04:50:49;101567.08;;;2.67;70.93
26436;BME280;15351;52.408;16.826;2023-02-16T04:53:16;101559.75;;;2.62;71.07
26436;BME280;15351;52.408;16.826;2023-02-16T04:55:47;101561.45;;;2.61;71.31
26436;BME280;15351;52.408;16.826;2023-02-16T04:58:17;101558.70;;;2.60;71.19
26436;BME280;15351;52.408;16.826;2023-02-16T05:00:45;101554.39;;;2.58;71.23
26436;BME280;15351;52.408;16.826;2023-02-16T05:03:13;101548.88;;;2.53;71.04
26436;BME280;15351;52.408;16.826;2023-02-16T05:05:42;101548.80;;;2.48;71.12
26436;BME280;15351;52.408;16.826;2023-02-16T05:08:10;101555.19;;;2.48;71.53
26436;BME280;15351;52.408;16.826;2023-02-16T05:10:45;101558.83;;;2.52;71.34
26436;BME280;15351;52.408;16.826;2023-02-16T05:13:41;101559.34;;;2.53;71.42
26436;BME280;15351;52.408;16.826;2023-02-16T05:16:27;101559.46;;;2.51;71.42
26436;BME280;15351;52.408;16.826;2023-02-16T05:18:55;101563.56;;;2.51;71.43
26436;BME280;15351;52.408;16.826;2023-02-16T05:21:23;101564.39;;;2.54;71.58
26436;BME280;15351;52.408;16.826;2023-02-16T05:24:01;101560.45;;;2.52;71.25
26436;BME280;15351;52.408;16.826;2023-02-16T05:26:32;101562.61;;;2.49;71.17
26436;BME280;15351;52.408;16.826;2023-02-16T05:29:02;101564.28;;;2.45;71.34
26436;BME280;15351;52.408;16.826;2023-02-16T05:31:34;101563.53;;;2.48;71.28
26436;BME280;15351;52.408;16.826;2023-02-16T05:34:02;101556.19;;;2.49;71.26
26436;BME280;15351;52.408;16.826;2023-02-16T05:36:35;101557.04;;;2.50;71.26
26436;BME280;15351;52.408;16.826;2023-02-16T05:39:03;101568.53;;;2.51;71.22
26436;BME280;15351;52.408;16.826;2023-02-16T05:41:30;101567.85;;;2.53;71.03
26436;BME280;15351;52.408;16.826;2023-02-16T05:44:00;101572.52;;;2.52;71.15
26436;BME280;15351;52.408;16.826;2023-02-16T05:46:32;101570.16;;;2.50;71.19
26436;BME280;15351;52.408;16.826;2023-02-16T05:49:08;101567.59;;;2.46;71.21
26436;BME280;15351;52.408;16.826;2023-02-16T05:51:35;101574.21;;;2.43;71.12
26436;BME280;15351;52.408;16.826;2023-02-16T05:54:03;101570.95;;;2.39;71.14
26436;BME280;15351;52.408;16.826;2023-02-16T05:56:30;101576.27;;;2.30;71.29
26436;BME280;15351;52.408;16.826;2023-02-16T05:58:59;101575.35;;;2.28;71.38
26436;BME280;15351;52.408;16.826;2023-02-16T06:01:27;101576.38;;;2.29;71.64
26436;BME280;15351;52.408;16.826;2023-02-16T06:03:55;101577.60;;;2.29;71.53
26436;BME280;15351;52.408;16.826;2023-02-16T06:06:24;101575.02;;;2.28;71.49
26436;BME280;15351;52.408;16.826;2023-02-16T06:08:53;101572.49;;;2.28;71.52
26436;BME280;15351;52.408;16.826;2023-02-16T06:11:28;101568.24;;;2.28;71.77
26436;BME280;15351;52.408;16.826;2023-02-16T06:14:26;101575.02;;;2.33;72.02
26436;BME280;15351;52.408;16.826;2023-02-16T06:17:06;101574.67;;;2.36;71.87
26436;BME280;15351;52.408;16.826;2023-02-16T06:19:36;101572.38;;;2.36;71.81
26436;BME280;15351;52.408;16.826;2023-02-16T06:22:09;101571.50;;;2.33;71.88
26436;BME280;15351;52.408;16.826;2023-02-16T06:24:37;101575.02;;;2.30;71.80
26436;BME280;15351;52.408;16.826;2023-02-16T06:27:07;101572.48;;;2.34;72.11
26436;BME280;15351;52.408;16.826;2023-02-16T06:29:37;101577.11;;;2.37;72.01
26436;BME280;15351;52.408;16.826;2023-02-16T06:32:08;101576.98;;;2.38;71.93
26436;BME280;15351;52.408;16.826;2023-02-16T06:34:37;101575.14;;;2.40;71.92
26436;BME280;15351;52.408;16.826;2023-02-16T06:37:11;101573.48;;;2.38;72.01
26436;BME280;15351;52.408;16.826;2023-02-16T06:39:55;101576.66;;;2.41;72.31
26436;BME280;15351;52.408;16.826;2023-02-16T06:42:29;101581.05;;;2.43;72.24
26436;BME280;15351;52.408;16.826;2023-02-16T06:44:58;101579.16;;;2.45;72.17
26436;BME280;15351;52.408;16.826;2023-02-16T06:47:27;101568.95;;;2.44;72.19
26436;BME280;15351;52.408;16.826;2023-02-16T06:50:03;101566.88;;;2.46;72.33
26436;BME280;15351;52.408;16.826;2023-02-16T06:52:32;101566.23;;;2.53;72.65
26436;BME280;15351;52.408;16.826;2023-02-16T06:55:01;101562.73;;;2.61;72.58
26436;BME280;15351;52.408;16.826;2023-02-16T06:57:29;101563.56;;;2.63;72.55
26436;BME280;15351;52.408;16.826;2023-02-16T06:59:59;101564.19;;;2.65;72.56
26436;BME280;15351;52.408;16.826;2023-02-16T07:02:26;101560.76;;;2.68;72.66
26436;BME280;15351;52.408;16.826;2023-02-16T07:05:01;101553.38;;;2.73;72.73
26436;BME280;15351;52.408;16.826;2023-02-16T07:07:35;101546.50;;;2.75;72.78
26436;BME280;15351;52.408;16.826;2023-02-16T07:10:04;101541.27;;;2.76;72.81
26436;BME280;15351;52.408;16.826;2023-02-16T07:12:33;101544.38;;;2.74;72.79
26436;BME280;15351;52.408;16.826;2023-02-16T07:15:01;101547.42;;;2.77;73.01
26436;BME280;15351;52.408;16.826;2023-02-16T07:17:27;101544.08;;;2.82;73.17
26436;BME280;15351;52.408;16.826;2023-02-16T07:20:04;101544.97;;;2.86;73.27
26436;BME280;15351;52.408;16.826;2023-02-16T07:22:32;101542.92;;;2.93;73.20
26436;BME280;15351;52.408;16.826;2023-02-16T07:25:00;101546.77;;;2.94;73.03
26436;BME280;15351;52.408;16.826;2023-02-16T07:27:31;101542.77;;;2.93;73.18
26436;BME280;15351;52.408;16.826;2023-02-16T07:30:00;101539.19;;;2.95;73.44
26436;BME280;15351;52.408;16.826;2023-02-16T07:32:30;101541.63;;;2.99;73.60
26436;BME280;15351;52.408;16.826;2023-02-16T07:34:58;101538.42;;;3.07;73.58
26436;BME280;15351;52.408;16.826;2023-02-16T07:37:28;101540.84;;;3.05;73.52
26436;BME280;15351;52.408;16.826;2023-02-16T07:40:19;101540.72;;;3.04;73.83
26436;BME280;15351;52.408;16.826;2023-02-16T07:42:48;101538.96;;;3.09;74.05
26436;BME280;15351;52.408;16.826;2023-02-16T07:45:17;101536.46;;;3.17;74.14
26436;BME280;15351;52.408;16.826;2023-02-16T07:47:45;101540.80;;;3.26;74.12
26436;BME280;15351;52.408;16.826;2023-02-16T07:50:19;101547.17;;;3.29;74.10
26436;BME280;15351;52.408;16.826;2023-02-16T07:52:49;101538.90;;;3.33;74.18
26436;BME280;15351;52.408;16.826;2023-02-16T07:55:16;101532.95;;;3.47;74.43
26436;BME280;15351;52.408;16.826;2023-02-16T07:57:45;101537.76;;;3.56;74.23
26436;BME280;15351;52.408;16.826;2023-02-16T08:00:19;101537.89;;;3.62;74.13
26436;BME280;15351;52.408;16.826;2023-02-16T08:03:08;101539.44;;;3.68;74.25
26436;BME280;15351;52.408;16.826;2023-02-16T08:05:38;101537.36;;;3.74;74.28
26436;BME280;15351;52.408;16.826;2023-02-16T08:08:06;101533.56;;;3.82;74.30
26436;BME280;15351;52.408;16.826;2023-02-16T08:10:38;101532.52;;;3.89;74.12
26436;BME280;15351;52.408;16.826;2023-02-16T08:13:08;101531.88;;;3.98;74.11
26436;BME280;15351;52.408;16.826;2023-02-16T08:15:35;101536.94;;;4.07;74.00
26436;BME280;15351;52.408;16.826;2023-02-16T08:18:12;101537.16;;;4.18;74.02
26436;BME280;15351;52.408;16.826;2023-02-16T08:20:41;101534.13;;;4.33;73.98
26436;BME280;15351;52.408;16.826;2023-02-16T08:23:28;101538.81;;;4.53;73.66
26436;BME280;15351;52.408;16.826;2023-02-16T08:26:08;101544.45;;;4.66;73.13
26436;BME280;15351;52.408;16.826;2023-02-16T08:28:39;101548.78;;;4.81;72.91
26436;BME280;15351;52.408;16.826;2023-02-16T08:31:17;101546.05;;;5.19;72.97
26436;BME280;15351;52.408;16.826;2023-02-16T08:33:49;101543.77;;;5.68;72.23
26436;BME280;15351;52.408;16.826;2023-02-16T08:36:27;101539.13;;;6.01;70.96
26436;BME280;15351;52.408;16.826;2023-02-16T08:39:18;101539.99;;;6.26;70.36
26436;BME280;15351;52.408;16.826;2023-02-16T08:41:48;101534.60;;;6.49;69.52
26436;BME280;15351;52.408;16.826;2023-02-16T08:44:17;101533.29;;;6.59;69.04
26436;BME280;15351;52.408;16.826;2023-02-16T08:46:50;101529.20;;;6.63;68.90
26436;BME280;15351;52.408;16.826;2023-02-16T08:49:24;101531.02;;;6.70;68.65
26436;BME280;15351;52.408;16.826;2023-02-16T08:51:57;101532.88;;;6.76;68.09
26436;BME280;15351;52.408;16.826;2023-02-16T08:54:29;101529.48;;;6.95;67.61
26436;BME280;15351;52.408;16.826;2023-02-16T08:57:21;101531.55;;;6.94;67.16
26436;BME280;15351;52.408;16.826;2023-02-16T08:59:50;101530.15;;;6.85;67.14
26436;BME280;15351;52.408;16.826;2023-02-16T09:02:40;101530.86;;;6.83;67.11
26436;BME280;15351;52.408;16.826;2023-02-16T09:05:10;101531.46;;;6.84;67.45
26436;BME280;15351;52.408;16.826;2023-02-16T09:07:39;101535.13;;;6.87;67.31
26436;BME280;15351;52.408;16.826;2023-02-16T09:10:07;101543.26;;;6.93;67.47
26436;BME280;15351;52.408;16.826;2023-02-16T09:12:37;101543.04;;;6.97;67.15
26436;BME280;15351;52.408;16.826;2023-02-16T09:15:15;101546.64;;;6.99;67.25
26436;BME280;15351;52.408;16.826;2023-02-16T09:17:42;101549.83;;;6.99;66.88
26436;BME280;15351;52.408;16.826;2023-02-16T09:20:12;101554.05;;;6.90;66.71
26436;BME280;15351;52.408;16.826;2023-02-16T09:22:44;101559.11;;;6.77;66.60
26436;BME280;15351;52.408;16.826;2023-02-16T09:25:13;101560.65;;;6.76;67.19
26436;BME280;15351;52.408;16.826;2023-02-16T09:27:50;101556.44;;;6.85;67.56
26436;BME280;15351;52.408;16.826;2023-02-16T09:30:22;101558.10;;;6.93;67.31
26436;BME280;15351;52.408;16.826;2023-02-16T09:33:10;101556.48;;;6.95;67.03
26436;BME280;15351;52.408;16.826;2023-02-16T09:35:38;101558.34;;;6.98;66.98
26436;BME280;15351;52.408;16.826;2023-02-16T09:38:08;101552.94;;;6.99;66.89
26436;BME280;15351;52.408;16.826;2023-02-16T09:40:37;101556.49;;;6.90;66.57
26436;BME280;15351;52.408;16.826;2023-02-16T09:46:16;101550.23;;;6.86;67.40
26436;BME280;15351;52.408;16.826;2023-02-16T09:49:03;101545.98;;;6.90;67.19
26436;BME280;15351;52.408;16.826;2023-02-16T09:51:39;101545.85;;;6.89;67.06
26436;BME280;15351;52.408;16.826;2023-02-16T09:54:46;101547.98;;;6.94;66.99
26436;BME280;15351;52.408;16.826;2023-02-16T10:00:24;101536.59;;;6.89;66.93
26436;BME280;15351;52.408;16.826;2023-02-16T10:03:41;101534.14;;;6.88;67.26
26436;BME280;15351;52.408;16.826;2023-02-16T10:06:21;101529.21;;;6.98;67.31
26436;BME280;15351;52.408;16.826;2023-02-16T10:09:06;101522.67;;;7.14;67.25
26436;BME280;15351;52.408;16.826;2023-02-16T10:12:10;101520.48;;;7.33;66.93
26436;BME280;15351;52.408;16.826;2023-02-16T10:15:13;101518.88;;;7.43;66.89
26436;BME280;15351;52.408;16.826;2023-02-16T10:17:53;101521.23;;;7.57;67.06
26436;BME280;15351;52.408;16.826;2023-02-16T10:20:37;101523.48;;;7.71;66.99
26436;BME280;15351;52.408;16.826;2023-02-16T10:23:47;101520.50;;;7.91;66.64
26436;BME280;15351;52.408;16.826;2023-02-16T10:26:38;101522.52;;;8.12;66.04
26436;BME280;15351;52.408;16.826;2023-02-16T10:29:18;101520.40;;;8.16;65.39
26436;BME280;15351;52.408;16.826;2023-02-16T10:35:14;101515.39;;;8.12;65.13
26436;BME280;15351;52.408;16.826;2023-02-16T10:38:10;101511.05;;;8.18;65.11
26436;BME280;15351;52.408;16.826;2023-02-16T10:41:23;101512.94;;;8.27;65.04
26436;BME280;15351;52.408;16.826;2023-02-16T10:44:36;101508.84;;;8.35;64.58
26436;BME280;15351;52.408;16.826;2023-02-16T10:47:33;101500.96;;;8.36;64.51
26436;BME280;15351;52.408;16.826;2023-02-16T10:50:38;101508.00;;;8.40;64.57
26436;BME280;15351;52.408;16.826;2023-02-16T10:56:59;101505.02;;;8.57;64.44
26436;BME280;15351;52.408;16.826;2023-02-16T10:59:46;101498.80;;;8.73;64.56
26436;BME280;15351;52.408;16.826;2023-02-16T11:02:43;101495.70;;;8.85;64.16
26436;BME280;15351;52.408;16.826;2023-02-16T11:08:29;101488.39;;;9.11;63.37
26436;BME280;15351;52.408;16.826;2023-02-16T11:11:39;101492.35;;;9.10;62.84
26436;BME280;15351;52.408;16.826;2023-02-16T11:14:27;101489.01;;;9.12;62.89
26436;BME280;15351;52.408;16.826;2023-02-16T11:17:20;101478.23;;;9.17;62.77
26436;BME280;15351;52.408;16.826;2023-02-16T11:20:00;101476.41;;;9.18;62.53
26436;BME280;15351;52.408;16.826;2023-02-16T11:22:41;101473.95;;;9.25;62.89
26436;BME280;15351;52.408;16.826;2023-02-16T11:25:21;101467.06;;;9.38;62.93
26436;BME280;15351;52.408;16.826;2023-02-16T11:28:14;101466.62;;;9.50;62.60
26436;BME280;15351;52.408;16.826;2023-02-16T11:30:59;101458.41;;;9.61;62.65
26436;BME280;15351;52.408;16.826;2023-02-16T11:33:28;101449.11;;;9.75;62.53
26436;BME280;15351;52.408;16.826;2023-02-16T11:36:42;101454.61;;;9.87;62.40
26436;BME280;15351;52.408;16.826;2023-02-16T11:39:35;101459.20;;;9.98;62.17
26436;BME280;15351;52.408;16.826;2023-02-16T11:45:36;101462.20;;;10.13;61.87
26436;BME280;15351;52.408;16.826;2023-02-16T11:48:33;101461.36;;;10.21;61.76
26436;BME280;15351;52.408;16.826;2023-02-16T11:51:08;101460.84;;;10.30;61.40
26436;BME280;15351;52.408;16.826;2023-02-16T11:53:40;101461.58;;;10.28;61.15
26436;BME280;15351;52.408;16.826;2023-02-16T11:56:24;101462.35;;;10.28;61.18
26436;BME280;15351;52.408;16.826;2023-02-16T11:59:05;101456.36;;;10.36;61.16
26436;BME280;15351;52.408;16.826;2023-02-16T12:05:25;101455.04;;;10.43;60.92
26436;BME280;15351;52.408;16.826;2023-02-16T12:11:27;101446.57;;;10.40;60.92
26436;BME280;15351;52.408;16.826;2023-02-16T12:18:15;101443.77;;;10.55;61.16
26436;BME280;15351;52.408;16.826;2023-02-16T12:20:55;101436.71;;;10.55;60.68
26436;BME280;15351;52.408;16.826;2023-02-16T12:27:05;101435.59;;;10.47;60.51
26436;BME280;15351;52.408;16.826;2023-02-16T12:30:07;101428.68;;;10.49;60.49
26436;BME280;15351;52.408;16.826;2023-02-16T12:33:29;101429.17;;;10.60;60.43
26436;BME280;15351;52.408;16.826;2023-02-16T12:36:24;101419.89;;;10.65;60.41
26436;BME280;15351;52.408;16.826;2023-02-16T12:39:39;101415.88;;;10.74;60.51
26436;BME280;15351;52.408;16.826;2023-02-16T12:42:33;101419.11;;;10.84;60.28
26436;BME280;15351;52.408;16.826;2023-02-16T12:45:43;101420.10;;;10.96;60.15
26436;BME280;15351;52.408;16.826;2023-02-16T12:55:09;101412.23;;;11.07;59.66
26436;BME280;15351;52.408;16.826;2023-02-16T12:58:01;101410.15;;;11.05;59.58
26436;BME280;15351;52.408;16.826;2023-02-16T13:01:09;101410.76;;;11.04;59.64
26436;BME280;15351;52.408;16.826;2023-02-16T13:04:32;101410.67;;;11.10;59.58
26436;BME280;15351;52.408;16.826;2023-02-16T13:07:53;101405.85;;;11.16;59.62
26436;BME280;15351;52.408;16.826;2023-02-16T13:11:42;101404.04;;;11.23;59.50
26436;BME280;15351;52.408;16.826;2023-02-16T13:14:29;101393.90;;;11.25;59.52
26436;BME280;15351;52.408;16.826;2023-02-16T13:17:55;101386.66;;;11.29;59.46
26436;BME280;15351;52.408;16.826;2023-02-16T13:20:42;101385.09;;;11.32;59.33
26436;BME280;15351;52.408;16.826;2023-02-16T13:23:32;101381.24;;;11.35;59.41
26436;BME280;15351;52.408;16.826;2023-02-16T13:36:16;101374.28;;;11.25;58.99
26436;BME280;15351;52.408;16.826;2023-02-16T13:43:00;101372.58;;;11.19;58.81
26436;BME280;15351;52.408;16.826;2023-02-16T13:45:51;101364.09;;;11.15;59.10
26436;BME280;15351;52.408;16.826;2023-02-16T13:48:32;101369.18;;;11.14;59.27
26436;BME280;15351;52.408;16.826;2023-02-16T13:51:38;101371.77;;;11.14;59.13
26436;BME280;15351;52.408;16.826;2023-02-16T13:54:34;101365.35;;;11.13;59.32
26436;BME280;15351;52.408;16.826;2023-02-16T14:00:38;101357.31;;;11.10;59.44
26436;BME280;15351;52.408;16.826;2023-02-16T14:06:34;101353.67;;;11.11;59.44
26436;BME280;15351;52.408;16.826;2023-02-16T14:12:02;101354.55;;;11.03;59.45
26436;BME280;15351;52.408;16.826;2023-02-16T14:15:15;101356.56;;;11.01;59.63
26436;BME280;15351;52.408;16.826;2023-02-16T14:17:47;101356.80;;;10.97;59.31
26436;BME280;15351;52.408;16.826;2023-02-16T14:23:25;101352.70;;;10.88;59.38
26436;BME280;15351;52.408;16.826;2023-02-16T14:26:09;101350.67;;;10.85;59.51
26436;BME280;15351;52.408;16.826;2023-02-16T14:29:08;101349.70;;;10.81;59.74
26436;BME280;15351;52.408;16.826;2023-02-16T14:31:49;101349.60;;;10.77;59.71
26436;BME280;15351;52.408;16.826;2023-02-16T14:34:43;101351.14;;;10.70;59.93
26436;BME280;15351;52.408;16.826;2023-02-16T14:43:43;101355.00;;;10.64;60.39
26436;BME280;15351;52.408;16.826;2023-02-16T14:49:40;101357.48;;;10.58;60.42
26436;BME280;15351;52.408;16.826;2023-02-16T14:52:43;101347.86;;;10.57;60.59
26436;BME280;15351;52.408;16.826;2023-02-16T14:58:43;101344.50;;;10.50;60.77
26436;BME280;15351;52.408;16.826;2023-02-16T15:01:18;101342.80;;;10.49;60.61
26436;BME280;15351;52.408;16.826;2023-02-16T15:04:14;101344.89;;;10.44;60.73
26436;BME280;15351;52.408;16.826;2023-02-16T15:06:51;101338.46;;;10.38;60.94
26436;BME280;15351;52.408;16.826;2023-02-16T15:09:23;101337.02;;;10.32;60.89
26436;BME280;15351;52.408;16.826;2023-02-16T15:12:02;101341.41;;;10.29;61.01
26436;BME280;15351;52.408;16.826;2023-02-16T15:14:53;101339.16;;;10.23;61.19
26436;BME280;15351;52.408;16.826;2023-02-16T15:20:30;101341.21;;;10.10;61.44
26436;BME280;15351;52.408;16.826;2023-02-16T15:23:05;101341.05;;;10.03;61.82
26436;BME280;15351;52.408;16.826;2023-02-16T15:25:38;101336.09;;;9.98;61.96
26436;BME280;15351;52.408;16.826;2023-02-16T15:28:31;101331.32;;;9.97;62.35
26436;BME280;15351;52.408;16.826;2023-02-16T15:31:04;101333.45;;;9.94;62.40
26436;BME280;15351;52.408;16.826;2023-02-16T15:33:40;101335.55;;;9.90;62.41
26436;BME280;15351;52.408;16.826;2023-02-16T15:36:37;101335.67;;;9.85;62.54
26436;BME280;15351;52.408;16.826;2023-02-16T15:39:11;101341.23;;;9.81;62.59
26436;BME280;15351;52.408;16.826;2023-02-16T15:41:45;101347.84;;;9.78;62.65
26436;BME280;15351;52.408;16.826;2023-02-16T15:44:35;101343.65;;;9.73;62.95
26436;BME280;15351;52.408;16.826;2023-02-16T15:47:27;101344.80;;;9.65;63.04
26436;BME280;15351;52.408;16.826;2023-02-16T15:50:12;101336.67;;;9.59;63.40
26436;BME280;15351;52.408;16.826;2023-02-16T15:52:41;101336.61;;;9.50;63.52